Time;durP1;ratioP1;P1;durP2;ratioP2;P2;SDS_P1;SDS_P2;PMS_P1;PMS_P2;Temp;Humidity;BMP_temperature;BMP_pressure;BME280_temperature;BME280_humidity;BME280_pressure;Samples;Min_cycle;Max_cycle;Signal;HPM_P1;HPM_P2
2022/07/20 00:00:16;;;;;;;;;;;;;;;21.46;59.92;153050.22;1748356;82;20214;-61
2022/07/20 00:02:44;;;;;;;;;;;;;;;21.40;60.21;153034.55;1745013;82;20148;-65
2022/07/20 00:05:11;;;;;;;;;;;;;;;21.38;60.30;153028.00;1735732;81;21216;-64
2022/07/20 00:07:39;;;;;;;;;;;;;;;21.44;60.35;153043.67;1735767;81;20091;-65
2022/07/20 00:12:52;;;;;;;;;;;;;;;21.66;59.83;153099.95;1737569;82;20182;-65
2022/07/20 00:15:19;;;;;;;;;;;;;;;21.77;59.40;153126.08;1737512;81;20174;-61
2022/07/20 00:17:46;;;;;;;;;;;;;;;21.80;59.29;153133.97;1737638;82;21291;-60
2022/07/20 00:20:14;;;;;;;;;;;;;;;21.84;59.02;153144.42;1737857;82;20191;-61
2022/07/20 00:22:41;;;;;;;;;;;;;;;21.86;58.83;153150.94;1738096;82;20159;-60
2022/07/20 00:25:08;;;;;;;;;;;;;;;21.91;58.73;153162.72;1737816;82;20246;-61
2022/07/20 00:27:37;;;;;;;;;;;;;;;21.95;58.45;153173.16;1737870;82;20138;-61
2022/07/20 00:30:04;;;;;;;;;;;;;;;21.98;58.31;153181.00;1738102;82;21189;-66
2022/07/20 00:32:38;;;;;;;;;;;;;;;22.06;57.87;153199.34;1737956;82;20166;-65
2022/07/20 00:35:07;;;;;;;;;;;;;;;22.09;57.59;153207.19;1737963;81;20154;-66
2022/07/20 00:37:34;;;;;;;;;;;;;;;22.16;57.31;153225.47;1737789;82;20577;-63
2022/07/20 00:40:01;;;;;;;;;;;;;;;22.21;56.82;153237.25;1738172;82;20223;-61
2022/07/20 00:42:28;;;;;;;;;;;;;;;22.23;56.57;153243.81;1738318;81;21120;-65
2022/07/20 00:44:55;;;;;;;;;;;;;;;22.26;56.15;153251.66;1737863;82;20122;-61
2022/07/20 00:47:22;;;;;;;;;;;;;;;22.28;56.07;153255.55;1737758;82;20463;-60
2022/07/20 00:49:49;;;;;;;;;;;;;;;22.31;55.79;153263.39;1738043;81;20123;-60
2022/07/20 00:52:17;;;;;;;;;;;;;;;22.37;55.54;153277.78;1737809;82;36340;-62
2022/07/20 00:54:48;;;;;;;;;;;;;;;22.44;55.29;153296.14;1738044;82;21874;-61
2022/07/20 00:57:16;;;;;;;;;;;;;;;22.52;54.96;153317.09;1737798;82;20218;-65
2022/07/20 00:59:43;;;;;;;;;;;;;;;22.60;54.52;153336.72;1737976;82;20170;-65
2022/07/20 01:02:09;;;;;;;;;;;;;;;22.63;54.20;153343.23;1737723;82;20499;-64
2022/07/20 01:04:37;;;;;;;;;;;;;;;22.63;54.20;153344.56;1747991;81;20456;-60
2022/07/20 01:07:04;;;;;;;;;;;;;;;22.66;54.10;153351.08;1749793;82;21138;-61
2022/07/20 01:09:32;;;;;;;;;;;;;;;22.69;53.95;153358.97;1749476;82;20490;-61
2022/07/20 01:11:59;;;;;;;;;;;;;;;22.73;53.92;153370.70;1732786;82;20208;-61
2022/07/20 01:14:26;;;;;;;;;;;;;;;22.80;53.67;153387.72;1728287;82;20701;-62
2022/07/20 01:16:53;;;;;;;;;;;;;;;22.83;53.47;153395.56;1728684;83;20183;-64
2022/07/20 01:19:19;;;;;;;;;;;;;;;22.85;53.38;153400.80;1724647;83;21329;-65
2022/07/20 01:21:47;;;;;;;;;;;;;;;22.88;53.31;153408.69;1724446;83;20129;-65
2022/07/20 01:24:14;;;;;;;;;;;;;;;22.93;53.14;153419.14;1724435;82;20173;-61
2022/07/20 01:26:41;;;;;;;;;;;;;;;22.93;53.00;153419.14;1724293;82;20185;-60
2022/07/20 01:29:08;;;;;;;;;;;;;;;22.93;53.00;153419.14;1724689;82;20133;-61
2022/07/20 01:31:35;;;;;;;;;;;;;;;22.94;52.90;153421.77;1724211;81;22209;-60
2022/07/20 01:34:03;;;;;;;;;;;;;;;22.95;52.85;153424.38;1724422;82;20172;-60
2022/07/20 01:36:30;;;;;;;;;;;;;;;22.94;52.82;153423.05;1724534;83;20201;-61
2022/07/20 01:38:56;;;;;;;;;;;;;;;22.93;52.71;153419.14;1724278;81;20177;-60
2022/07/20 01:41:25;;;;;;;;;;;;;;;22.88;52.88;153408.69;1724210;83;20189;-60
2022/07/20 01:43:52;;;;;;;;;;;;;;;22.89;52.82;153409.97;1724611;82;22151;-60
2022/07/20 01:46:18;;;;;;;;;;;;;;;22.84;52.91;153398.19;1724239;83;20205;-61
2022/07/20 01:48:45;;;;;;;;;;;;;;;22.84;52.93;153396.91;1724469;83;20145;-61
2022/07/20 01:51:12;;;;;;;;;;;;;;;22.82;52.90;153392.95;1724657;81;20710;-61
2022/07/20 01:53:39;;;;;;;;;;;;;;;22.79;52.86;153385.11;1724387;83;20165;-63
2022/07/20 01:56:07;;;;;;;;;;;;;;;22.72;52.95;153366.81;1724588;83;21240;-64
2022/07/20 01:58:34;;;;;;;;;;;;;;;22.67;53.03;153353.73;1724319;81;20251;-64
2022/07/20 02:01:01;;;;;;;;;;;;;;;22.63;53.05;153343.23;1724433;81;20161;-65
2022/07/20 02:03:28;;;;;;;;;;;;;;;22.58;53.16;153332.78;1722442;83;20196;-65
2022/07/20 02:05:56;;;;;;;;;;;;;;;22.53;53.09;153319.70;1719445;83;20129;-61
2022/07/20 02:08:25;;;;;;;;;;;;;;;22.47;53.25;153304.03;1725520;81;21146;-61
2022/07/20 02:10:52;;;;;;;;;;;;;;;22.40;53.17;153286.97;1737871;82;20212;-61
2022/07/20 02:13:20;;;;;;;;;;;;;;;22.28;53.30;153256.87;1720680;83;20457;-61
2022/07/20 02:18:32;;;;;;;;;;;;;;;22.08;53.67;153204.56;1732399;82;20496;-64
2022/07/20 02:21:00;;;;;;;;;;;;;;;21.98;53.77;153179.72;1740170;82;22263;-60
2022/07/20 02:23:27;;;;;;;;;;;;;;;21.84;53.96;153144.42;1739923;82;20171;-60
2022/07/20 02:25:54;;;;;;;;;;;;;;;21.70;54.00;153110.41;1740089;82;20179;-64
2022/07/20 02:28:21;;;;;;;;;;;;;;;21.54;54.29;153068.50;1739930;82;20478;-64
2022/07/20 02:30:47;;;;;;;;;;;;;;;21.43;54.66;153042.39;1740476;82;20091;-63
2022/07/20 02:33:14;;;;;;;;;;;;;;;21.34;54.93;153018.88;1740271;82;21509;-63
2022/07/20 02:35:42;;;;;;;;;;;;;;;21.27;55.26;153000.55;1739911;82;20222;-64
2022/07/20 02:38:08;;;;;;;;;;;;;;;21.29;55.39;153005.78;1740218;82;20452;-64
2022/07/20 02:40:35;;;;;;;;;;;;;;;21.30;55.57;153008.38;1740082;82;20246;-59
2022/07/20 02:43:02;;;;;;;;;;;;;;;21.38;55.56;153029.33;1740144;82;20455;-60
2022/07/20 02:45:29;;;;;;;;;;;;;;;21.42;55.41;153038.44;1740038;82;21137;-60
2022/07/20 02:48:02;;;;;;;;;;;;;;;21.41;55.48;153035.83;1740074;82;20175;-60
2022/07/20 02:50:24;;;;;;;;;;;;;;;21.40;55.62;153033.22;1739511;82;20281;-64
2022/07/20 02:52:51;;;;;;;;;;;;;;;21.37;55.66;153026.72;1740218;82;20222;-60
2022/07/20 02:55:18;;;;;;;;;;;;;;;21.34;55.83;153018.88;1740094;82;20203;-60
2022/07/20 02:57:44;;;;;;;;;;;;;;;21.30;55.77;153009.72;1740455;82;21220;-60
2022/07/20 03:00:12;;;;;;;;;;;;;;;21.22;55.98;152987.48;1739914;82;20182;-61
2022/07/20 03:02:38;;;;;;;;;;;;;;;21.17;56.26;152977.05;1740455;82;20122;-59
2022/07/20 03:05:06;;;;;;;;;;;;;;;21.21;56.29;152986.16;1739685;82;20688;-60
2022/07/20 03:07:33;;;;;;;;;;;;;;;21.26;56.30;152997.94;1739782;82;20167;-60
2022/07/20 03:10:00;;;;;;;;;;;;;;;21.36;56.21;153024.09;1739782;82;21736;-63
2022/07/20 03:12:27;;;;;;;;;;;;;;;21.52;55.95;153064.63;1720651;82;20175;-61
2022/07/20 03:14:54;;;;;;;;;;;;;;;21.66;55.51;153098.63;1728704;81;20223;-61
2022/07/20 03:17:21;;;;;;;;;;;;;;;21.72;55.23;153114.34;1747370;82;20945;-60
2022/07/20 03:19:50;;;;;;;;;;;;;;;21.81;55.28;153136.58;1737707;82;20148;-64
2022/07/20 03:22:17;;;;;;;;;;;;;;;21.91;55.00;153161.44;1737776;82;21298;-64
2022/07/20 03:24:44;;;;;;;;;;;;;;;21.91;55.05;153162.72;1737448;82;20103;-61
2022/07/20 03:27:10;;;;;;;;;;;;;;;21.91;55.34;153161.44;1737731;82;20175;-64
2022/07/20 03:29:37;;;;;;;;;;;;;;;21.92;55.33;153165.31;1737589;82;20455;-65
2022/07/20 03:32:05;;;;;;;;;;;;;;;21.92;55.43;153165.31;1737787;82;20448;-61
2022/07/20 03:34:31;;;;;;;;;;;;;;;21.91;55.61;153162.72;1737768;82;21222;-61
2022/07/20 03:36:58;;;;;;;;;;;;;;;21.94;55.80;153169.27;1737459;82;20167;-61
2022/07/20 03:39:25;;;;;;;;;;;;;;;21.99;55.60;153183.61;1737552;82;20210;-61
2022/07/20 03:41:52;;;;;;;;;;;;;;;22.02;55.59;153190.17;1737742;82;20130;-61
2022/07/20 03:44:18;;;;;;;;;;;;;;;22.03;55.66;153194.11;1737168;81;20182;-61
2022/07/20 03:46:45;;;;;;;;;;;;;;;22.09;55.58;153207.19;1737107;82;21171;-61
2022/07/20 03:49:12;;;;;;;;;;;;;;;22.13;55.58;153217.63;1736850;81;20223;-62
2022/07/20 03:51:39;;;;;;;;;;;;;;;22.18;55.59;153230.69;1737545;82;20207;-62
2022/07/20 03:54:07;;;;;;;;;;;;;;;22.28;55.49;153256.87;1738041;82;20175;-62
2022/07/20 03:56:39;;;;;;;;;;;;;;;22.45;55.19;153298.75;1737786;82;20177;-62
2022/07/20 03:59:03;;;;;;;;;;;;;;;22.58;54.95;153331.50;1737597;82;21239;-61
2022/07/20 04:01:32;;;;;;;;;;;;;;;22.75;54.69;153374.66;1737832;82;20127;-61
2022/07/20 04:03:59;;;;;;;;;;;;;;;22.87;54.23;153404.73;1735692;82;20428;-61
2022/07/20 04:06:26;;;;;;;;;;;;;;;23.00;53.85;153438.78;1728316;83;21055;-62
2022/07/20 04:08:53;;;;;;;;;;;;;;;23.12;53.66;153468.88;1728674;83;20129;-61
2022/07/20 04:11:19;;;;;;;;;;;;;;;23.32;53.35;153518.61;1726327;81;22107;-60
2022/07/20 04:13:46;;;;;;;;;;;;;;;23.42;52.70;153544.81;1724366;83;20445;-61
2022/07/20 04:16:15;;;;;;;;;;;;;;;23.50;52.39;153563.11;1724430;82;20425;-61
2022/07/20 04:18:42;;;;;;;;;;;;;;;23.46;52.32;153555.27;1727050;81;20523;-61
2022/07/20 04:21:09;;;;;;;;;;;;;;;23.47;52.51;153556.59;1728647;82;20200;-60
2022/07/20 04:23:38;;;;;;;;;;;;;;;23.61;52.44;153591.94;1728354;83;21125;-61
2022/07/20 04:26:06;;;;;;;;;;;;;;;23.78;52.13;153635.11;1728178;83;20275;-60
2022/07/20 04:28:33;;;;;;;;;;;;;;;23.91;52.08;153667.84;1728425;83;20200;-61
2022/07/20 04:31:01;;;;;;;;;;;;;;;24.06;51.51;153704.56;1728191;83;20172;-61
2022/07/20 04:33:27;;;;;;;;;;;;;;;24.25;51.40;153752.98;1728289;83;20180;-61
2022/07/20 04:35:54;;;;;;;;;;;;;;;24.41;50.92;153793.56;1728356;83;21316;-61
2022/07/20 04:38:21;;;;;;;;;;;;;;;24.55;50.50;153830.25;1728258;83;20227;-60
2022/07/20 04:40:48;;;;;;;;;;;;;;;24.65;50.47;153853.81;1728385;83;20133;-61
2022/07/20 04:43:15;;;;;;;;;;;;;;;24.78;50.39;153886.66;1728328;83;20177;-60
2022/07/20 04:45:43;;;;;;;;;;;;;;;24.81;49.80;153895.78;1728345;83;20147;-61
2022/07/20 04:48:09;;;;;;;;;;;;;;;24.81;49.61;153895.78;1728392;83;22718;-60
2022/07/20 04:50:38;;;;;;;;;;;;;;;24.76;49.31;153882.70;1728260;82;20184;-61
2022/07/20 04:53:05;;;;;;;;;;;;;;;24.64;49.38;153852.53;1728594;83;20152;-62
2022/07/20 04:55:31;;;;;;;;;;;;;;;24.60;49.52;153843.34;1728324;83;20203;-62
2022/07/20 04:57:58;;;;;;;;;;;;;;;24.64;49.80;153851.19;1728400;83;20497;-62
2022/07/20 05:00:25;;;;;;;;;;;;;;;24.77;49.17;153885.31;1728199;83;21142;-62
2022/07/20 05:02:52;;;;;;;;;;;;;;;24.83;48.97;153901.03;1728460;83;20140;-61
2022/07/20 05:05:19;;;;;;;;;;;;;;;24.92;48.55;153923.30;1733861;81;20190;-60
2022/07/20 05:07:46;;;;;;;;;;;;;;;24.95;48.39;153929.86;1737641;82;20154;-61
2022/07/20 05:10:13;;;;;;;;;;;;;;;24.97;48.16;153935.09;1738521;81;20454;-61
2022/07/20 05:12:40;;;;;;;;;;;;;;;24.97;48.00;153935.09;1748562;82;21135;-61
2022/07/20 05:15:08;;;;;;;;;;;;;;;24.96;47.95;153933.77;1748520;82;20512;-61
2022/07/20 05:17:36;;;;;;;;;;;;;;;24.97;47.64;153936.38;1743648;82;20188;-61
2022/07/20 05:20:05;;;;;;;;;;;;;;;24.98;47.47;153937.72;1718890;83;20237;-61
2022/07/20 05:22:32;;;;;;;;;;;;;;;24.98;47.80;153937.72;1747993;81;20231;-61
2022/07/20 05:24:59;;;;;;;;;;;;;;;25.00;47.58;153942.95;1749015;81;20627;-61
2022/07/20 05:27:26;;;;;;;;;;;;;;;25.01;47.67;153945.56;1747970;82;20185;-61
2022/07/20 05:29:53;;;;;;;;;;;;;;;25.03;47.57;153950.80;1748300;81;20143;-60
2022/07/20 05:32:20;;;;;;;;;;;;;;;25.10;47.32;153969.17;1748156;80;20178;-61
2022/07/20 05:34:47;;;;;;;;;;;;;;;25.23;47.12;154001.94;1748148;82;20443;-61
2022/07/20 05:37:14;;;;;;;;;;;;;;;25.30;46.83;154018.92;1748573;82;21124;-62
2022/07/20 05:39:41;;;;;;;;;;;;;;;25.37;46.46;154035.97;1740092;82;20138;-61
2022/07/20 05:42:08;;;;;;;;;;;;;;;25.39;46.46;154041.20;1716040;82;20700;-60
2022/07/20 05:44:34;;;;;;;;;;;;;;;25.48;46.47;154063.53;1716571;82;20508;-62
2022/07/20 05:47:02;;;;;;;;;;;;;;;25.55;46.11;154083.19;1725022;82;20198;-60
2022/07/20 05:49:29;;;;;;;;;;;;;;;25.63;46.27;154102.86;1710552;82;21059;-60
2022/07/20 05:51:56;;;;;;;;;;;;;;;25.79;45.49;154142.19;1712846;82;20163;-60
2022/07/20 05:54:22;;;;;;;;;;;;;;;25.87;45.51;154164.47;1714727;83;20278;-60
2022/07/20 05:56:49;;;;;;;;;;;;;;;25.99;45.32;154193.28;1709883;82;20402;-61
2022/07/20 05:59:16;;;;;;;;;;;;;;;26.05;45.05;154209.00;1736593;81;20512;-60
2022/07/20 06:01:44;;;;;;;;;;;;;;;26.15;44.58;154233.91;1719510;82;22162;-60
2022/07/20 06:04:12;;;;;;;;;;;;;;;26.18;44.64;154241.81;1726357;81;20446;-60
2022/07/20 06:06:39;;;;;;;;;;;;;;;26.25;44.60;154258.86;1704950;82;20492;-60
2022/07/20 06:09:06;;;;;;;;;;;;;;;26.38;44.00;154291.63;1710781;82;20763;-60
2022/07/20 06:11:34;;;;;;;;;;;;;;;26.48;42.92;154317.87;1706451;82;20239;-61
2022/07/20 06:14:01;;;;;;;;;;;;;;;26.40;43.05;154296.88;1703823;83;21256;-62
2022/07/20 06:16:28;;;;;;;;;;;;;;;26.41;43.13;154300.83;1703632;82;20490;-60
2022/07/20 06:18:57;;;;;;;;;;;;;;;26.41;43.34;154299.48;1708198;82;20270;-61
2022/07/20 06:21:25;;;;;;;;;;;;;;;26.42;43.29;154302.16;1706150;82;20564;-61
2022/07/20 06:23:51;;;;;;;;;;;;;;;26.49;43.23;154320.50;1708405;83;20416;-61
2022/07/20 06:26:18;;;;;;;;;;;;;;;26.62;43.34;154351.94;1704761;83;21244;-61
2022/07/20 06:28:46;;;;;;;;;;;;;;;26.76;43.08;154388.67;1704747;83;20231;-61
2022/07/20 06:31:13;;;;;;;;;;;;;;;26.83;42.62;154407.02;1711715;82;20196;-60
2022/07/20 06:33:40;;;;;;;;;;;;;;;26.94;43.80;154433.31;1708516;82;20476;-62
2022/07/20 06:36:08;;;;;;;;;;;;;;;27.14;42.71;154485.78;1704552;83;20228;-62
2022/07/20 06:38:35;;;;;;;;;;;;;;;27.30;43.19;154525.09;1705427;82;21140;-62
2022/07/20 06:41:02;;;;;;;;;;;;;;;27.60;43.75;154601.25;1704632;83;20225;-63
2022/07/20 06:43:29;;;;;;;;;;;;;;;27.91;42.93;154678.67;1703342;83;20549;-60
2022/07/20 06:45:55;;;;;;;;;;;;;;;28.14;42.29;154737.69;1704177;82;20113;-61
2022/07/20 06:48:22;;;;;;;;;;;;;;;28.31;42.25;154782.37;1706671;83;20227;-61
2022/07/20 06:50:49;;;;;;;;;;;;;;;28.48;42.08;154823.05;1709231;82;21211;-62
2022/07/20 06:53:15;;;;;;;;;;;;;;;28.64;41.18;154863.78;1707327;83;20689;-61
2022/07/20 06:55:43;;;;;;;;;;;;;;;28.56;41.42;154844.08;1713685;83;20187;-61
2022/07/20 06:58:10;;;;;;;;;;;;;;;28.58;41.66;154850.61;1702958;83;20241;-62
2022/07/20 07:00:37;;;;;;;;;;;;;;;28.69;41.38;154876.89;1714389;82;20179;-61
2022/07/20 07:03:04;;;;;;;;;;;;;;;28.64;39.21;154863.78;1690529;83;21280;-61
2022/07/20 07:05:31;;;;;;;;;;;;;;;28.36;39.02;154794.20;1724870;81;20477;-61
2022/07/20 07:08:00;;;;;;;;;;;;;;;28.09;39.75;154725.92;1730274;81;20516;-65
2022/07/20 07:10:27;;;;;;;;;;;;;;;28.06;39.97;154716.72;1734950;81;20206;-65
2022/07/20 07:12:54;;;;;;;;;;;;;;;27.97;39.86;154695.75;1735027;80;20181;-63
2022/07/20 07:15:20;;;;;;;;;;;;;;;27.96;40.29;154693.06;1731491;81;21621;-65
2022/07/20 07:17:47;;;;;;;;;;;;;;;28.08;39.91;154723.30;1724095;82;20206;-64
2022/07/20 07:20:14;;;;;;;;;;;;;;;28.19;39.40;154750.91;1726954;81;20204;-64
2022/07/20 07:22:42;;;;;;;;;;;;;;;28.28;39.28;154773.17;1723275;81;20230;-64
2022/07/20 07:25:09;;;;;;;;;;;;;;;28.36;38.98;154794.20;1725757;82;20195;-64
2022/07/20 07:27:37;;;;;;;;;;;;;;;28.35;38.60;154790.25;1723864;82;21130;-64
2022/07/20 07:30:05;;;;;;;;;;;;;;;28.35;38.13;154790.25;1732221;82;20211;-64
2022/07/20 07:32:32;;;;;;;;;;;;;;;28.31;37.49;154782.37;1727887;82;20171;-64
2022/07/20 07:34:59;;;;;;;;;;;;;;;28.25;36.78;154765.31;1730936;82;20204;-65
2022/07/20 07:37:26;;;;;;;;;;;;;;;28.16;37.37;154742.98;1726755;81;20227;-65
2022/07/20 07:39:53;;;;;;;;;;;;;;;28.12;37.95;154732.45;1728774;82;21260;-64
2022/07/20 07:42:21;;;;;;;;;;;;;;;27.99;38.34;154700.98;1732645;82;20176;-64
2022/07/20 07:44:49;;;;;;;;;;;;;;;27.91;38.60;154679.97;1732397;82;20174;-64
2022/07/20 07:47:16;;;;;;;;;;;;;;;27.99;38.94;154700.98;1724752;82;20164;-64
2022/07/20 07:49:43;;;;;;;;;;;;;;;28.11;38.66;154731.16;1721763;82;20239;-63
2022/07/20 07:52:09;;;;;;;;;;;;;;;28.08;38.54;154723.30;1725932;82;21262;-64
2022/07/20 07:54:36;;;;;;;;;;;;;;;28.07;38.47;154719.34;1722640;82;20485;-64
2022/07/20 07:57:03;;;;;;;;;;;;;;;28.11;38.58;154731.16;1719970;82;20227;-65
2022/07/20 07:59:30;;;;;;;;;;;;;;;28.19;38.32;154750.91;1720611;82;20200;-65
2022/07/20 08:01:57;;;;;;;;;;;;;;;28.26;37.93;154769.27;1711391;82;20130;-65
2022/07/20 08:04:24;;;;;;;;;;;;;;;28.22;38.15;154757.44;1726859;82;21333;-65
2022/07/20 08:06:52;;;;;;;;;;;;;;;28.25;38.26;154766.64;1699262;82;20086;-64
2022/07/20 08:09:19;;;;;;;;;;;;;;;28.39;38.45;154800.73;1724575;81;20205;-65
2022/07/20 08:11:47;;;;;;;;;;;;;;;28.63;38.79;154861.11;1704887;82;20208;-64
2022/07/20 08:14:14;;;;;;;;;;;;;;;28.87;39.21;154922.88;1699816;83;20544;-65
2022/07/20 08:16:41;;;;;;;;;;;;;;;28.99;38.89;154953.06;1699158;83;21258;-65
2022/07/20 08:19:08;;;;;;;;;;;;;;;29.11;38.05;154984.59;1702430;82;20209;-65
2022/07/20 08:21:35;;;;;;;;;;;;;;;29.24;37.57;155016.08;1698785;83;20490;-64
2022/07/20 08:24:03;;;;;;;;;;;;;;;29.34;37.26;155042.38;1710907;82;20182;-64
2022/07/20 08:26:30;;;;;;;;;;;;;;;29.42;36.13;155063.41;1702371;83;20212;-65
2022/07/20 08:28:56;;;;;;;;;;;;;;;29.42;35.36;155062.12;1701403;83;21241;-65
2022/07/20 08:31:23;;;;;;;;;;;;;;;29.45;38.20;155071.28;1704902;82;20212;-65
2022/07/20 08:33:50;;;;;;;;;;;;;;;29.62;39.18;155113.31;1701185;83;20165;-65
2022/07/20 08:36:17;;;;;;;;;;;;;;;29.76;36.92;155147.50;1699786;83;20204;-65
2022/07/20 08:38:43;;;;;;;;;;;;;;;29.86;37.60;155173.73;1700200;83;20209;-65
2022/07/20 08:41:11;;;;;;;;;;;;;;;29.84;36.13;155169.83;1700042;83;21276;-65
2022/07/20 08:43:38;;;;;;;;;;;;;;;29.85;35.59;155171.11;1697984;83;20220;-65
2022/07/20 08:46:05;;;;;;;;;;;;;;;29.74;34.84;155143.53;1701349;82;20228;-65
2022/07/20 08:48:32;;;;;;;;;;;;;;;29.61;35.23;155110.70;1700367;83;20656;-65
2022/07/20 08:50:59;;;;;;;;;;;;;;;29.59;35.19;155105.45;1697646;83;20488;-65
2022/07/20 08:53:26;;;;;;;;;;;;;;;29.57;35.61;155100.20;1700590;83;21109;-65
2022/07/20 08:55:53;;;;;;;;;;;;;;;29.58;37.71;155104.11;1699457;83;20921;-66
2022/07/20 08:58:20;;;;;;;;;;;;;;;29.60;37.56;155108.08;1701659;83;20659;-66
2022/07/20 09:00:46;;;;;;;;;;;;;;;29.62;36.41;155113.31;1711395;83;20597;-67
2022/07/20 09:03:13;;;;;;;;;;;;;;;29.57;36.29;155100.20;1713038;83;20503;-67
2022/07/20 09:05:40;;;;;;;;;;;;;;;29.64;36.00;155118.56;1706905;81;21132;-65
2022/07/20 09:08:13;;;;;;;;;;;;;;;29.68;35.66;155129.06;1703638;83;20244;-69
2022/07/20 09:10:42;;;;;;;;;;;;;;;29.63;35.97;155115.95;1699027;83;20442;-68
2022/07/20 09:13:13;;;;;;;;;;;;;;;29.55;36.99;155094.95;1714509;83;20199;-66
2022/07/20 09:15:49;;;;;;;;;;;;;;;29.60;36.89;155108.08;1712773;83;20202;-68
2022/07/20 09:18:22;;;;;;;;;;;;;;;29.80;37.06;155157.98;1696587;83;20532;-68
2022/07/20 09:21:03;;;;;;;;;;;;;;;29.92;37.84;155189.48;1706786;82;20375;-68
2022/07/20 09:23:33;;;;;;;;;;;;;;;29.89;37.34;155181.61;1706834;82;20261;-67
2022/07/20 09:26:04;;;;;;;;;;;;;;;29.75;37.45;155144.86;1702207;83;20713;-67
2022/07/20 09:28:40;;;;;;;;;;;;;;;29.52;36.81;155087.08;1704120;82;20212;-67
2022/07/20 09:31:18;;;;;;;;;;;;;;;29.43;37.01;155066.03;1702239;83;21152;-66
2022/07/20 09:33:54;;;;;;;;;;;;;;;29.41;36.27;155060.78;1704633;83;20152;-66
2022/07/20 09:36:22;;;;;;;;;;;;;;;29.51;36.32;155084.41;1705577;82;20224;-67
2022/07/20 09:38:49;;;;;;;;;;;;;;;29.82;36.27;155163.23;1702208;83;20208;-67
2022/07/20 09:41:24;;;;;;;;;;;;;;;30.11;35.93;155236.83;1707715;82;20468;-67
2022/07/20 09:43:53;;;;;;;;;;;;;;;30.21;36.43;155261.78;1703422;83;20149;-67
2022/07/20 09:46:22;;;;;;;;;;;;;;;30.27;36.51;155277.55;1706714;82;20196;-67
2022/07/20 09:48:51;;;;;;;;;;;;;;;30.41;36.94;155314.34;1704031;83;20209;-66
2022/07/20 09:51:28;;;;;;;;;;;;;;;30.50;36.86;155336.69;1705111;83;20192;-67
2022/07/20 09:54:03;;;;;;;;;;;;;;;30.58;39.02;155357.69;1703133;83;20204;-66
2022/07/20 09:56:30;;;;;;;;;;;;;;;30.58;40.32;155356.41;1708943;82;21257;-67
2022/07/20 09:58:58;;;;;;;;;;;;;;;30.65;40.68;155373.55;1710004;82;20181;-67
2022/07/20 10:01:26;;;;;;;;;;;;;;;30.70;40.38;155386.67;1704936;83;20204;-67
2022/07/20 10:03:54;;;;;;;;;;;;;;;30.73;39.59;155394.56;1701040;83;20197;-66
2022/07/20 10:06:23;;;;;;;;;;;;;;;30.79;39.76;155410.31;1713707;82;20236;-67
2022/07/20 10:08:49;;;;;;;;;;;;;;;30.81;40.07;155415.56;1726002;82;21220;-67
2022/07/20 10:11:17;;;;;;;;;;;;;;;30.79;39.83;155410.31;1725670;82;20199;-68
2022/07/20 10:13:45;;;;;;;;;;;;;;;30.72;39.74;155391.94;1723371;82;20211;-67
2022/07/20 10:16:19;;;;;;;;;;;;;;;30.71;39.63;155389.30;1731188;82;20647;-67
2022/07/20 10:18:46;;;;;;;;;;;;;;;30.71;39.58;155389.30;1723015;81;20206;-67
2022/07/20 10:21:37;;;;;;;;;;;;;;;30.75;39.51;155399.81;1732139;82;21121;-67
2022/07/20 10:24:25;;;;;;;;;;;;;;;30.85;39.42;155426.13;1736492;81;20213;-67
2022/07/20 10:26:54;;;;;;;;;;;;;;;31.03;39.06;155469.47;1700810;83;20157;-66
2022/07/20 10:29:33;;;;;;;;;;;;;;;31.13;38.41;155497.06;1727402;82;20614;-66
2022/07/20 10:32:16;;;;;;;;;;;;;;;31.14;38.24;155498.36;1725899;80;20147;-66
2022/07/20 10:34:56;;;;;;;;;;;;;;;31.07;38.14;155481.31;1720810;82;21152;-66
2022/07/20 10:37:40;;;;;;;;;;;;;;;30.92;38.29;155443.16;1727749;82;21088;-66
2022/07/20 10:40:11;;;;;;;;;;;;;;;30.81;38.62;155415.56;1717961;81;20472;-66
2022/07/20 10:42:41;;;;;;;;;;;;;;;30.77;38.53;155403.77;1718422;81;20507;-66
2022/07/20 10:45:24;;;;;;;;;;;;;;;30.84;38.89;155422.16;1719124;82;20221;-67
2022/07/20 10:48:11;;;;;;;;;;;;;;;30.95;39.08;155449.75;1715463;82;20697;-67
2022/07/20 10:50:41;;;;;;;;;;;;;;;31.03;38.83;155470.75;1725999;82;20174;-67
2022/07/20 10:53:17;;;;;;;;;;;;;;;31.06;38.52;155477.34;1707790;81;20179;-67
2022/07/20 10:55:47;;;;;;;;;;;;;;;31.06;38.22;155478.69;1735901;82;20207;-67
2022/07/20 10:58:20;;;;;;;;;;;;;;;31.01;38.01;155465.50;1743149;82;20205;-67
2022/07/20 11:00:55;;;;;;;;;;;;;;;30.96;38.10;155452.38;1729236;82;23062;-67
2022/07/20 11:03:27;;;;;;;;;;;;;;;30.89;37.79;155434.00;1736499;81;20198;-67
2022/07/20 11:06:10;;;;;;;;;;;;;;;30.79;37.54;155410.31;1733702;81;20194;-66
2022/07/20 11:08:39;;;;;;;;;;;;;;;30.66;37.57;155376.17;1723905;82;20208;-66
2022/07/20 11:11:07;;;;;;;;;;;;;;;30.50;37.61;155336.69;1727482;82;20222;-67
2022/07/20 11:13:34;;;;;;;;;;;;;;;30.44;37.88;155322.22;1727884;82;22300;-66
2022/07/20 11:16:01;;;;;;;;;;;;;;;30.48;37.67;155330.09;1724765;82;20392;-67
2022/07/20 11:18:31;;;;;;;;;;;;;;;30.54;37.49;155345.91;1728721;82;20140;-66
2022/07/20 11:21:00;;;;;;;;;;;;;;;30.55;37.24;155349.81;1731570;81;20558;-67
2022/07/20 11:23:44;;;;;;;;;;;;;;;30.49;37.17;155334.06;1727022;82;20179;-68
2022/07/20 11:26:14;;;;;;;;;;;;;;;30.42;37.57;155315.69;1726948;82;22264;-66
2022/07/20 11:28:55;;;;;;;;;;;;;;;30.40;37.29;155310.44;1698225;83;20208;-66
2022/07/20 11:31:23;;;;;;;;;;;;;;;30.46;37.11;155326.19;1701962;83;20529;-67
2022/07/20 11:33:52;;;;;;;;;;;;;;;30.55;36.93;155349.81;1700737;83;20220;-67
2022/07/20 11:36:21;;;;;;;;;;;;;;;30.63;36.74;155369.58;1701343;83;20556;-68
2022/07/20 11:38:50;;;;;;;;;;;;;;;30.67;36.52;155378.80;1700186;83;21230;-67
2022/07/20 11:41:37;;;;;;;;;;;;;;;30.64;36.81;155370.92;1700489;83;20221;-68
2022/07/20 11:44:07;;;;;;;;;;;;;;;30.64;36.31;155370.92;1704313;83;20991;-67
2022/07/20 11:46:51;;;;;;;;;;;;;;;30.58;35.92;155356.41;1696064;82;20239;-67
2022/07/20 11:49:22;;;;;;;;;;;;;;;30.57;36.18;155355.06;1703552;81;20195;-67
2022/07/20 11:51:54;;;;;;;;;;;;;;;30.64;36.00;155370.92;1703980;83;21181;-67
2022/07/20 11:54:23;;;;;;;;;;;;;;;30.71;35.98;155389.30;1700999;83;20229;-67
2022/07/20 11:56:51;;;;;;;;;;;;;;;30.78;36.17;155407.69;1700724;83;20197;-67
2022/07/20 11:59:17;;;;;;;;;;;;;;;30.89;35.90;155434.00;1701020;82;20260;-68
2022/07/20 12:01:44;;;;;;;;;;;;;;;30.93;35.51;155444.50;1717747;82;20178;-67
2022/07/20 12:04:13;;;;;;;;;;;;;;;30.87;35.62;155430.03;1701202;83;21275;-67
2022/07/20 12:06:41;;;;;;;;;;;;;;;30.80;35.85;155412.94;1715688;82;20175;-67
2022/07/20 12:09:12;;;;;;;;;;;;;;;30.78;36.30;155406.39;1710952;82;20508;-68
2022/07/20 12:12:00;;;;;;;;;;;;;;;30.81;36.61;155414.28;1681683;83;20500;-68
2022/07/20 12:14:35;;;;;;;;;;;;;;;30.82;36.54;155418.19;1702569;83;20206;-69
2022/07/20 12:17:14;;;;;;;;;;;;;;;30.77;36.42;155403.77;1707552;83;21288;-68
2022/07/20 12:19:41;;;;;;;;;;;;;;;30.71;36.95;155389.30;1699617;83;20489;-69
2022/07/20 12:22:19;;;;;;;;;;;;;;;30.59;36.85;155360.31;1701691;83;20241;-69
2022/07/20 12:24:59;;;;;;;;;;;;;;;30.48;36.50;155331.44;1696679;83;20388;-67
2022/07/20 12:27:28;;;;;;;;;;;;;;;30.38;36.81;155305.14;1700984;83;20188;-67
2022/07/20 12:29:54;;;;;;;;;;;;;;;30.29;36.90;155284.13;1698683;82;21237;-67
2022/07/20 12:32:32;;;;;;;;;;;;;;;30.26;37.26;155276.25;1699765;82;20425;-66
2022/07/20 12:34:59;;;;;;;;;;;;;;;30.29;37.40;155284.13;1697228;82;20470;-66
2022/07/20 12:37:47;;;;;;;;;;;;;;;30.33;37.58;155292.00;1699977;82;21019;-66
2022/07/20 12:40:37;;;;;;;;;;;;;;;30.38;37.79;155305.14;1697280;82;20193;-66
2022/07/20 12:43:05;;;;;;;;;;;;;;;30.43;37.59;155318.31;1697301;83;21244;-65
2022/07/20 12:45:33;;;;;;;;;;;;;;;30.50;38.17;155336.69;1700204;82;20260;-66
2022/07/20 12:48:00;;;;;;;;;;;;;;;30.55;39.02;155348.53;1700123;82;20486;-66